Ns Challenger — A8FD6 — position and weather

sailwx.info

Track history (hours):
 
Tides and Currents Weather Stations Pressure Air Temp Water Temp Dewpoint Dewpoint Depression Visibility Wind Speed Wind Dir Waves Ship Positions

Ns Challenger

Last reported at 2017-Sep-17 07:28 UTC. Time now 2017-Sep-21 15:57 UTC.
Position N 37°33' W 074°40'.

Length 244 m; draft 9.6 m.

Type: Tanker. MMSI: 636012381.

Date/timePositionNaut miles runAvg speedWind from/ knotsBaromVisibWave heightAir tempDewpointWater temp
2017-Sep-17 07:28N 37°33' W 074°40'612.3
2017-Sep-17 06:59N 37°39' W 074°41'612.5
2017-Sep-17 06:30N 37°45' W 074°41'812.6
2017-Sep-17 05:53N 37°53' W 074°40'411.6
2017-Sep-17 05:30N 37°57' W 074°40'712.2
2017-Sep-17 04:57N 38°04' W 074°40'613.2
2017-Sep-17 04:30N 38°10' W 074°40'713.5
2017-Sep-17 04:00N 38°17' W 074°40'713.3
2017-Sep-17 03:30N 38°24' W 074°41'713.6
2017-Sep-17 03:00N 38°29' W 074°46'714.0
2017-Sep-17 02:30N 38°35' W 074°51'714.4
2017-Sep-17 02:00N 38°41' W 074°56'714.2
2017-Sep-17 01:31N 38°47' W 075°02'611.2
2017-Sep-17 01:00N 38°52' W 075°05'714.2
2017-Sep-17 00:31N 38°58' W 075°08'714.4
2017-Sep-17 00:01N 39°05' W 075°11'713.3
2017-Sep-16 23:30N 39°10' W 075°16'612.1
2017-Sep-16 23:00N 39°16' W 075°20'611.5
2017-Sep-16 22:31N 39°20' W 075°25'611.5
2017-Sep-16 22:01N 39°24' W 075°30'611.1
2017-Sep-16 21:31N 39°29' W 075°34'611.4
2017-Sep-16 21:01N 39°35' W 075°33'510.1
2017-Sep-16 20:31N 39°40' W 075°32'713.3
2017-Sep-16 20:00N 39°46' W 075°29'4 8.0
2017-Sep-16 19:31N 39°48' W 075°25'0 0.2
2017-Sep-16 19:00N 39°48' W 075°25'0 0.0
2017-Sep-16 18:30N 39°48' W 075°25'0 0.0
2017-Sep-16 18:00N 39°48' W 075°25'0 0.0
2017-Sep-16 17:30N 39°48' W 075°25'0 0.0
2017-Sep-16 17:00N 39°48' W 075°25'0 0.0
2017-Sep-16 16:30N 39°48' W 075°25'0 0.2
2017-Sep-16 16:00N 39°48' W 075°25'0 0.4
2017-Sep-16 15:30N 39°48' W 075°25'0 0.1
2017-Sep-16 15:00N 39°48' W 075°25'0 0.0
2017-Sep-16 14:30N 39°48' W 075°25'0 0.0
2017-Sep-16 14:00N 39°48' W 075°25'0 0.0
2017-Sep-16 13:30N 39°48' W 075°24'0 0.0
2017-Sep-16 13:00N 39°48' W 075°24'0 0.0
2017-Sep-16 12:30N 39°48' W 075°24'0 0.0
2017-Sep-16 12:00N 39°48' W 075°24'0 0.0
2017-Sep-16 11:30N 39°48' W 075°24'0 0.0
2017-Sep-16 11:00N 39°48' W 075°24'0 0.0
2017-Sep-16 10:30N 39°48' W 075°24'0 0.3
2017-Sep-16 10:00N 39°48' W 075°25'0 0.3
2017-Sep-16 09:30N 39°48' W 075°25'0 0.0
2017-Sep-16 09:00N 39°48' W 075°25'0 0.0
2017-Sep-16 08:30N 39°48' W 075°25'0 0.0
2017-Sep-16 08:00N 39°48' W 075°25'0 0.0
2017-Sep-16 07:30N 39°48' W 075°25'0 0.0
2017-Sep-16 07:00N 39°48' W 075°25'0 0.2
2017-Sep-16 06:30N 39°48' W 075°25'2 4.6
2017-Sep-16 06:00N 39°47' W 075°28'5 9.6
2017-Sep-16 05:30N 39°43' W 075°31'5 9.2
2017-Sep-16 05:00N 39°39' W 075°33'4 8.5
2017-Sep-16 04:30N 39°34' W 075°33'1 1.9
2017-Sep-16 04:00N 39°35' W 075°34'1 1.5
2017-Sep-16 03:29N 39°35' W 075°35'0 0.0
2017-Sep-16 02:59N 39°35' W 075°35'0 0.0
2017-Sep-16 02:29N 39°35' W 075°35'0 0.0
2017-Sep-16 01:59N 39°35' W 075°35'0 0.0
2017-Sep-16 01:29N 39°35' W 075°35'0 0.0
2017-Sep-16 00:59N 39°35' W 075°35'0 0.0
2017-Sep-16 00:29N 39°35' W 075°35'0 0.0
2017-Sep-15 23:59N 39°35' W 075°35'0 0.0
2017-Sep-15 23:29N 39°35' W 075°35'0 0.0
2017-Sep-15 22:59N 39°35' W 075°35'0 0.0
2017-Sep-15 22:29N 39°35' W 075°35'0 0.0
2017-Sep-15 21:59N 39°35' W 075°35'0 0.0
2017-Sep-15 21:29N 39°35' W 075°35'0 0.0
2017-Sep-15 20:59N 39°35' W 075°35'0 0.0
2017-Sep-15 20:29N 39°35' W 075°35'0 0.0
2017-Sep-15 19:59N 39°35' W 075°35'0 0.0
2017-Sep-15 19:29N 39°35' W 075°35'0 0.0
2017-Sep-15 18:59N 39°35' W 075°35'0 0.0
2017-Sep-15 18:29N 39°35' W 075°35'0 0.0
2017-Sep-15 17:59N 39°35' W 075°35'0 0.0
2017-Sep-15 17:29N 39°35' W 075°35'0 0.0
2017-Sep-15 16:59N 39°35' W 075°35'0 0.0
2017-Sep-15 16:29N 39°35' W 075°35'0 0.0
2017-Sep-15 15:59N 39°35' W 075°35'0 0.0
2017-Sep-15 15:29N 39°35' W 075°35'0 0.0
2017-Sep-15 14:59N 39°35' W 075°35'0 0.0
2017-Sep-15 14:29N 39°35' W 075°35'0 0.0
2017-Sep-15 13:59N 39°35' W 075°35'0 0.0
2017-Sep-15 13:29N 39°35' W 075°35'0 0.0
2017-Sep-15 12:59N 39°35' W 075°35'0 0.0
2017-Sep-15 12:29N 39°35' W 075°35'0 0.0
2017-Sep-15 11:59N 39°35' W 075°35'0 0.0
2017-Sep-15 11:28N 39°35' W 075°35'0 0.0
2017-Sep-15 10:58N 39°35' W 075°35'0 0.0
2017-Sep-15 10:28N 39°35' W 075°35'0 0.0
2017-Sep-15 09:58N 39°35' W 075°35'0 0.0
2017-Sep-15 09:28N 39°35' W 075°35'0 0.0
2017-Sep-15 08:58N 39°35' W 075°35'0 0.0
2017-Sep-15 08:28N 39°35' W 075°35'0 0.0
2017-Sep-15 07:58N 39°35' W 075°35'0 0.0
2017-Sep-15 07:28N 39°35' W 075°35'0 0.0
2017-Sep-15 06:58N 39°35' W 075°35'0 0.0
2017-Sep-15 06:28N 39°35' W 075°35'0 0.0
2017-Sep-15 05:58N 39°35' W 075°35'0 0.0
2017-Sep-15 05:28N 39°35' W 075°35'0 0.0
2017-Sep-15 04:58N 39°35' W 075°35'0 0.0
2017-Sep-15 04:28N 39°35' W 075°35'0 0.0
2017-Sep-15 03:58N 39°35' W 075°35'0 0.0
2017-Sep-15 03:28N 39°35' W 075°35'0 0.0
2017-Sep-15 02:58N 39°35' W 075°35'0 0.0
2017-Sep-15 02:28N 39°35' W 075°35'0 0.0
2017-Sep-15 01:58N 39°35' W 075°35'0 0.0
2017-Sep-15 01:28N 39°35' W 075°35'0 0.0
2017-Sep-15 00:58N 39°35' W 075°35'0 0.0
2017-Sep-15 00:28N 39°35' W 075°35'0 0.0
2017-Sep-14 23:58N 39°35' W 075°35'0 0.0
2017-Sep-14 23:28N 39°35' W 075°35'0 0.0
2017-Sep-14 22:58N 39°35' W 075°35'0 0.0
2017-Sep-14 22:28N 39°35' W 075°35'0 0.0
2017-Sep-14 21:58N 39°35' W 075°35'0 0.0
2017-Sep-14 21:28N 39°35' W 075°35'0 0.0
2017-Sep-14 20:58N 39°35' W 075°35'0 0.0
2017-Sep-14 20:28N 39°35' W 075°35'0 0.0
2017-Sep-14 19:58N 39°35' W 075°35'0 0.0
2017-Sep-14 19:28N 39°35' W 075°35'0 0.0
2017-Sep-14 18:58N 39°35' W 075°35'0 0.0
2017-Sep-14 18:28N 39°35' W 075°35'0 0.0
2017-Sep-14 17:58N 39°35' W 075°35'0 0.0
2017-Sep-14 17:25N 39°35' W 075°35'0 0.0
2017-Sep-14 16:58N 39°35' W 075°35'0 0.0
2017-Sep-14 16:28N 39°35' W 075°35'0 0.0
2017-Sep-14 15:58N 39°35' W 075°35'0 0.0
2017-Sep-14 15:28N 39°35' W 075°35'0 0.0
2017-Sep-14 14:58N 39°35' W 075°35'0 0.0
2017-Sep-14 14:28N 39°35' W 075°35'0 0.0
2017-Sep-14 13:58N 39°35' W 075°35'0 0.0
2017-Sep-14 13:28N 39°35' W 075°35'0 0.0
2017-Sep-14 12:58N 39°35' W 075°35'0 0.0
2017-Sep-14 12:28N 39°35' W 075°35'0 0.0
2017-Sep-14 11:58N 39°35' W 075°35'0 0.0
2017-Sep-14 11:28N 39°35' W 075°35'0 0.0
2017-Sep-14 10:58N 39°35' W 075°35'0 0.0
2017-Sep-14 10:28N 39°35' W 075°35'0 0.0
2017-Sep-14 09:58N 39°35' W 075°35'0 0.0
2017-Sep-14 09:28N 39°35' W 075°35'0 0.0
2017-Sep-14 08:58N 39°35' W 075°35'0 0.0
2017-Sep-14 08:28N 39°35' W 075°35'0 0.0
2017-Sep-14 07:58N 39°35' W 075°35'0 0.0
2017-Sep-14 07:28N 39°35' W 075°35'0 0.0
2017-Sep-14 06:58N 39°35' W 075°35'0 0.0
2017-Sep-14 06:28N 39°35' W 075°35'0 0.0
2017-Sep-14 05:58N 39°35' W 075°35'0 0.0
2017-Sep-14 05:28N 39°35' W 075°35'0 0.0
2017-Sep-14 04:58N 39°35' W 075°35'0 0.0
2017-Sep-14 04:28N 39°35' W 075°35'0 0.0
2017-Sep-14 03:58N 39°35' W 075°35'0 0.0
2017-Sep-14 03:25N 39°35' W 075°35'0 0.0
2017-Sep-14 03:01N 39°35' W 075°35'0 0.0
2017-Sep-14 02:30N 39°35' W 075°35'0 0.0
2017-Sep-14 02:00N 39°35' W 075°35'0 0.0
2017-Sep-14 01:30N 39°35' W 075°35'0 0.0
2017-Sep-14 01:00N 39°35' W 075°35'0 0.0
2017-Sep-14 00:30N 39°35' W 075°35'0 0.0
2017-Sep-14 00:01N 39°35' W 075°35'0 0.0
2017-Sep-13 23:30N 39°35' W 075°35'0 0.0
2017-Sep-13 23:01N 39°35' W 075°35'0 0.0
2017-Sep-13 22:31N 39°35' W 075°35'0 0.0
2017-Sep-13 22:01N 39°35' W 075°35'0 0.0
2017-Sep-13 21:31N 39°35' W 075°35'0 0.0
2017-Sep-13 21:00N 39°35' W 075°35'0 0.0
2017-Sep-13 20:30N 39°35' W 075°35'0 0.0
2017-Sep-13 20:00N 39°35' W 075°35'0 0.0
2017-Sep-13 19:30N 39°35' W 075°35'0 0.0
2017-Sep-13 19:00N 39°35' W 075°35'0 0.0
2017-Sep-13 18:30N 39°35' W 075°35'0 0.0
2017-Sep-13 18:00N 39°35' W 075°35'0 0.0
2017-Sep-13 17:30N 39°35' W 075°35'0 0.0
2017-Sep-13 17:00N 39°35' W 075°35'0 0.0
2017-Sep-13 16:30N 39°35' W 075°35'0 0.0
2017-Sep-13 15:57N 39°35' W 075°35'0 0.0
2017-Sep-13 15:30N 39°35' W 075°35'0 0.0
2017-Sep-13 15:00N 39°35' W 075°35'0 0.0
2017-Sep-13 14:30N 39°35' W 075°35'0 0.0
2017-Sep-13 14:00N 39°35' W 075°35'0 0.0
2017-Sep-13 13:30N 39°35' W 075°35'0 0.0
2017-Sep-13 13:00N 39°35' W 075°35'0 0.0
2017-Sep-13 12:30N 39°35' W 075°35'0 0.0
2017-Sep-13 12:00N 39°35' W 075°35'0 0.0
2017-Sep-13 11:31N 39°35' W 075°35'1 2.6
2017-Sep-13 11:00N 39°34' W 075°34'2 4.6
2017-Sep-13 10:30N 39°32' W 075°33'4 8.1
2017-Sep-13 10:00N 39°28' W 075°34'510.1
2017-Sep-13 09:31N 39°24' W 075°30'510.9
2017-Sep-13 09:00N 39°20' W 075°25'510.6
2017-Sep-13 08:30N 39°16' W 075°21'510.6
2017-Sep-13 08:00N 39°12' W 075°17'612.3
2017-Sep-13 07:30N 39°07' W 075°12'612.8
2017-Sep-13 07:00N 39°01' W 075°09'613.0
2017-Sep-13 06:31N 38°55' W 075°06'3 6.1
2017-Sep-13 06:00N 38°55' W 075°09'5 9.7
2017-Sep-13 05:31N 38°59' W 075°13'0 0.7
2017-Sep-13 04:58N 38°59' W 075°13'0 0.0
2017-Sep-13 04:28N 38°59' W 075°13'0 0.0
2017-Sep-13 03:58N 38°59' W 075°13'0 0.0
2017-Sep-13 03:28N 38°59' W 075°13'0 0.0
2017-Sep-13 02:55N 38°59' W 075°13'0 0.0
2017-Sep-13 02:28N 38°59' W 075°13'0 0.4
2017-Sep-13 01:58N 38°59' W 075°12'0 0.1
2017-Sep-13 01:28N 38°59' W 075°13'0 0.0
2017-Sep-13 00:58N 38°59' W 075°13'0 0.1
2017-Sep-13 00:28N 38°59' W 075°12'0 0.0
2017-Sep-12 23:58N 38°59' W 075°12'0 0.1
2017-Sep-12 23:28N 38°59' W 075°13'0 0.0
2017-Sep-12 22:58N 38°59' W 075°12'0 0.0
2017-Sep-12 22:28N 38°59' W 075°12'0 0.0
2017-Sep-12 21:55N 38°59' W 075°12'0 0.0
2017-Sep-12 21:28N 38°59' W 075°12'0 0.2
2017-Sep-12 20:58N 38°59' W 075°12'0 0.2
2017-Sep-12 20:28N 38°59' W 075°13'0 0.1
2017-Sep-12 19:58N 38°59' W 075°13'0 0.0
2017-Sep-12 19:28N 38°59' W 075°13'0 0.0
2017-Sep-12 18:55N 38°59' W 075°13'0 0.0
2017-Sep-12 18:25N 38°59' W 075°13'0 0.0
2017-Sep-12 17:52N 38°59' W 075°13'0 0.0
2017-Sep-12 17:28N 38°59' W 075°13'0 0.0
2017-Sep-12 17:01N 38°59' W 075°13'0 0.0
2017-Sep-12 16:31N 38°59' W 075°13'0 0.1
2017-Sep-12 16:01N 38°59' W 075°13'0 0.0
2017-Sep-12 15:30N 38°59' W 075°13'0 0.1
2017-Sep-12 14:57N 38°59' W 075°13'0 0.0
2017-Sep-12 14:21N 38°59' W 075°13'0 0.0
2017-Sep-12 14:00N 38°59' W 075°13'0 0.1
2017-Sep-12 13:27N 38°59' W 075°13'0 0.4
2017-Sep-12 13:00N 38°59' W 075°13'0 0.0
2017-Sep-12 09:15N 38°59' W 075°12'0 0.1
2017-Sep-12 09:00N 38°59' W 075°12'0 0.0
2017-Sep-12 08:30N 38°59' W 075°12'0 0.1
2017-Sep-12 08:00N 38°59' W 075°12'0 0.2
2017-Sep-12 07:30N 38°59' W 075°12'0 0.2
2017-Sep-12 07:00N 38°59' W 075°13'0 0.1
2017-Sep-12 06:30N 38°59' W 075°13'0 0.0
2017-Sep-12 05:57N 38°59' W 075°13'0 0.0
2017-Sep-12 05:30N 38°59' W 075°13'0 0.0
2017-Sep-12 05:00N 38°59' W 075°13'0 0.0
2017-Sep-12 04:30N 38°59' W 075°13'0 0.0
2017-Sep-12 04:00N 38°59' W 075°13'0 0.0
2017-Sep-12 03:30N 38°59' W 075°13'0 0.1
2017-Sep-12 03:00N 38°59' W 075°13'0 0.3
2017-Sep-12 02:30N 38°59' W 075°13'0 0.1
2017-Sep-12 02:00N 38°59' W 075°13'0 0.1
2017-Sep-12 01:30N 38°59' W 075°13'0 0.1
2017-Sep-12 01:00N 38°59' W 075°12'0 0.0
2017-Sep-12 00:30N 38°59' W 075°12'0 0.0
2017-Sep-12 00:00N 38°59' W 075°12'0 0.0
2017-Sep-11 23:30N 38°59' W 075°12'0 0.0
2017-Sep-11 23:00N 38°59' W 075°12'0 0.0
2017-Sep-11 22:30N 38°59' W 075°12'0 0.0
2017-Sep-11 22:00N 38°59' W 075°12'0 0.0
2017-Sep-11 21:30N 38°59' W 075°12'0 0.0
2017-Sep-11 21:00N 38°59' W 075°12'0 0.0
2017-Sep-11 20:30N 38°59' W 075°12'0 0.1
2017-Sep-11 20:00N 38°59' W 075°12'0 0.3
2017-Sep-11 19:30N 38°59' W 075°12'0 0.2
2017-Sep-11 19:00N 38°59' W 075°13'0 0.1
2017-Sep-11 18:30N 38°59' W 075°13'0 0.0
2017-Sep-11 18:00N 38°59' W 075°13'0 0.0
2017-Sep-11 17:30N 38°59' W 075°13'0 0.0
2017-Sep-11 16:54N 38°59' W 075°13'0 0.0
2017-Sep-11 14:24N 38°59' W 075°13'0 0.0
2017-Sep-11 14:00N 38°59' W 075°13'0 0.1
2017-Sep-11 13:24N 38°59' W 075°13'0 0.1
2017-Sep-11 13:00N 38°59' W 075°13'0 0.1
2017-Sep-11 12:24N 38°59' W 075°13'0 0.2
2017-Sep-11 12:00N 38°59' W 075°13'0 0.1
2017-Sep-11 11:30N 38°59' W 075°13'0 0.1
2017-Sep-11 11:00N 38°59' W 075°13'0 0.0
2017-Sep-11 10:30N 38°59' W 075°12'0 0.0
2017-Sep-11 09:57N 38°59' W 075°12'0 0.0
2017-Sep-11 09:30N 38°59' W 075°12'0 0.0
2017-Sep-11 09:00N 38°59' W 075°12'0 0.0
2017-Sep-11 08:30N 38°59' W 075°13'0 0.0
2017-Sep-11 08:00N 38°59' W 075°12'0 0.2
2017-Sep-11 07:30N 38°59' W 075°13'0 0.4
2017-Sep-11 06:57N 38°59' W 075°13'0 0.1
2017-Sep-11 06:30N 38°59' W 075°13'0 0.0
2017-Sep-11 06:00N 38°59' W 075°13'0 0.0
2017-Sep-11 05:09N 38°59' W 075°13'0 0.0
2017-Sep-11 04:57N 38°59' W 075°13'0 0.0
2017-Sep-11 04:30N 38°59' W 075°13'0 0.0
2017-Sep-11 03:45N 38°59' W 075°13'0 0.1
2017-Sep-11 03:30N 38°59' W 075°13'0 0.0
2017-Sep-11 03:00N 38°59' W 075°13'0 0.0
2017-Sep-11 02:06N 38°59' W 075°13'0 0.0
2017-Sep-11 01:57N 38°59' W 075°13'0 0.0
2017-Sep-11 01:20N 38°59' W 075°13'0 0.1
2017-Sep-11 00:20N 38°59' W 075°13'0 0.3
2017-Sep-10 23:59N 38°59' W 075°13'0 0.2
2017-Sep-10 23:29N 38°59' W 075°13'0 0.1
2017-Sep-10 22:59N 38°59' W 075°13'0 0.0
2017-Sep-10 22:29N 38°59' W 075°12'0 0.0
2017-Sep-10 21:59N 38°59' W 075°12'0 0.0
2017-Sep-10 21:29N 38°59' W 075°12'0 0.0
2017-Sep-10 20:56N 38°59' W 075°12'0 0.0
2017-Sep-10 20:29N 38°59' W 075°12'0 0.0
2017-Sep-10 19:59N 38°59' W 075°12'0 0.0
2017-Sep-10 19:29N 38°59' W 075°12'0 0.1
2017-Sep-10 18:59N 38°59' W 075°12'0 0.3
2017-Sep-10 18:29N 38°59' W 075°12'0 0.1
2017-Sep-10 13:50N 38°59' W 075°13'0 0.1
2017-Sep-10 13:05N 38°59' W 075°13'0 0.1
2017-Sep-10 12:35N 38°59' W 075°13'0 0.2
2017-Sep-10 12:29N 38°59' W 075°13'0 0.1
2017-Sep-10 11:59N 38°59' W 075°13'0 0.0
2017-Sep-10 11:29N 38°59' W 075°13'0 0.0
2017-Sep-10 10:56N 38°59' W 075°13'0 0.0
2017-Sep-10 10:29N 38°59' W 075°13'0 0.0
2017-Sep-10 09:59N 38°59' W 075°13'0 0.0
2017-Sep-10 09:23N 38°59' W 075°12'0 0.0
2017-Sep-10 08:59N 38°59' W 075°12'0 0.0
2017-Sep-10 08:29N 38°59' W 075°13'0 0.0
2017-Sep-10 07:59N 38°59' W 075°13'0 0.0
2017-Sep-10 07:29N 38°59' W 075°13'0 0.0
2017-Sep-10 06:56N 38°59' W 075°13'0 0.0
2017-Sep-10 06:29N 38°59' W 075°12'0 0.0
2017-Sep-10 05:53N 38°59' W 075°13'0 0.0
2017-Sep-10 05:29N 38°59' W 075°13'0 0.3
2017-Sep-10 04:56N 38°59' W 075°13'0 0.2
2017-Sep-10 04:29N 38°59' W 075°13'0 0.1
2017-Sep-10 03:59N 38°59' W 075°13'0 0.0
2017-Sep-10 02:53N 38°59' W 075°13'0 0.0
2017-Sep-10 02:29N 38°59' W 075°13'0 0.1
2017-Sep-10 01:59N 38°59' W 075°13'0 0.2
2017-Sep-10 01:29N 38°59' W 075°13'0 0.1
2017-Sep-10 00:59N 38°59' W 075°13'0 0.2
2017-Sep-10 00:29N 38°59' W 075°13'0 0.1
2017-Sep-09 23:56N 38°59' W 075°12'0 0.1
2017-Sep-09 23:26N 38°59' W 075°13'0 0.1
2017-Sep-09 22:59N 38°59' W 075°12'0 0.0
2017-Sep-09 22:29N 38°59' W 075°12'0 0.0
2017-Sep-09 21:59N 38°59' W 075°12'0 0.0
2017-Sep-09 21:29N 38°59' W 075°12'0 0.0
2017-Sep-09 20:59N 38°59' W 075°12'0 0.0
2017-Sep-09 20:23N 38°59' W 075°12'0 0.0
2017-Sep-09 19:59N 38°59' W 075°12'0 0.0
2017-Sep-09 19:29N 38°59' W 075°12'0 0.1
2017-Sep-09 18:59N 38°59' W 075°12'0 0.0
2017-Sep-09 18:29N 38°59' W 075°12'0 0.0
2017-Sep-09 17:50N 38°59' W 075°12'0 0.4
2017-Sep-09 17:29N 38°59' W 075°13'0 0.3
2017-Sep-09 16:59N 38°59' W 075°13'0 0.0
2017-Sep-09 12:59N 38°59' W 075°13'0 0.1
2017-Sep-09 12:29N 38°59' W 075°13'0 0.3
2017-Sep-09 11:56N 38°59' W 075°13'0 0.1
2017-Sep-09 11:29N 38°59' W 075°13'0 0.0
2017-Sep-09 10:58N 38°59' W 075°13'0 0.0
2017-Sep-09 10:28N 38°59' W 075°13'0 0.1
2017-Sep-09 09:58N 38°59' W 075°13'0 0.1
2017-Sep-09 09:28N 38°59' W 075°13'0 0.0
2017-Sep-09 08:58N 38°59' W 075°13'0 0.0
2017-Sep-09 08:28N 38°59' W 075°13'0 0.0
2017-Sep-09 07:55N 38°59' W 075°13'0 0.0
2017-Sep-09 07:28N 38°59' W 075°13'0 0.0
2017-Sep-09 06:58N 38°59' W 075°13'0 0.0
2017-Sep-09 06:28N 38°59' W 075°13'0 0.0
2017-Sep-09 05:46N 38°59' W 075°13'0 0.0
2017-Sep-09 05:28N 38°59' W 075°13'0 0.1
2017-Sep-09 04:58N 38°59' W 075°12'0 0.4
2017-Sep-09 04:28N 38°59' W 075°13'0 0.1
2017-Sep-09 03:58N 38°59' W 075°13'0 0.0
2017-Sep-09 03:28N 38°59' W 075°13'0 0.0
2017-Sep-09 02:58N 38°59' W 075°13'0 0.0
2017-Sep-09 02:25N 38°59' W 075°13'0 0.0
2017-Sep-09 01:58N 38°59' W 075°13'0 0.0
2017-Sep-09 01:28N 38°59' W 075°13'0 0.0
2017-Sep-09 00:58N 38°59' W 075°13'0 0.0
2017-Sep-09 00:28N 38°59' W 075°13'0 0.1
2017-Sep-08 23:55N 38°59' W 075°13'0 0.0
2017-Sep-08 23:28N 38°59' W 075°13'0 0.4
2017-Sep-08 22:58N 38°59' W 075°12'0 0.2
2017-Sep-08 22:28N 38°59' W 075°13'0 0.0
2017-Sep-08 21:55N 38°59' W 075°13'0 0.0
2017-Sep-08 21:28N 38°59' W 075°13'0 0.0
2017-Sep-08 20:58N 38°59' W 075°13'0 0.0
2017-Sep-08 20:28N 38°59' W 075°13'0 0.0
2017-Sep-08 19:55N 38°59' W 075°13'0 0.0
2017-Sep-08 19:28N 38°59' W 075°13'0 0.0
2017-Sep-08 18:55N 38°59' W 075°13'0 0.0
2017-Sep-08 18:28N 38°59' W 075°13'0 0.0
2017-Sep-08 17:58N 38°59' W 075°13'0 0.0
2017-Sep-08 17:28N 38°59' W 075°12'0 0.0
2017-Sep-08 16:58N 38°59' W 075°12'0 0.3
2017-Sep-08 16:28N 38°59' W 075°13'0 0.1
2017-Sep-08 15:58N 38°59' W 075°13'0 0.1
2017-Sep-08 15:28N 38°59' W 075°13'0 0.0
2017-Sep-08 14:58N 38°59' W 075°13'0 0.0
2017-Sep-08 14:25N 38°59' W 075°13'0 0.0
2017-Sep-08 13:43N 38°59' W 075°13'0 0.1
2017-Sep-08 13:28N 38°59' W 075°13'0 0.0
2017-Sep-08 12:58N 38°59' W 075°13'0 0.0
2017-Sep-08 12:28N 38°59' W 075°13'0 0.0
2017-Sep-08 11:58N 38°59' W 075°13'0 0.0
2017-Sep-08 11:25N 38°59' W 075°13'0 0.1
2017-Sep-08 10:58N 38°59' W 075°13'0 0.2
2017-Sep-08 10:28N 38°59' W 075°12'0 0.3
2017-Sep-08 09:52N 38°59' W 075°12'0 0.0
2017-Sep-08 09:28N 38°59' W 075°13'0 0.0
2017-Sep-08 08:58N 38°59' W 075°12'0 0.0
2017-Sep-08 08:28N 38°59' W 075°12'0 0.0
2017-Sep-08 07:58N 38°59' W 075°12'0 0.0
2017-Sep-08 07:28N 38°59' W 075°12'0 0.0
2017-Sep-08 06:58N 38°59' W 075°12'0 0.0
2017-Sep-08 06:28N 38°59' W 075°12'0 0.1
2017-Sep-08 05:58N 38°59' W 075°12'0 0.1
2017-Sep-08 05:28N 38°59' W 075°12'0 0.0
2017-Sep-08 04:58N 38°59' W 075°12'0 0.1
2017-Sep-08 04:28N 38°59' W 075°12'0 0.2
2017-Sep-08 03:58N 38°59' W 075°13'0 0.1
2017-Sep-08 03:28N 38°59' W 075°13'0 0.0
2017-Sep-08 02:58N 38°59' W 075°13'0 0.0
2017-Sep-08 02:25N 38°59' W 075°13'0 0.0
2017-Sep-08 01:58N 38°59' W 075°13'0 0.0
2017-Sep-08 01:28N 38°59' W 075°13'0 0.0
2017-Sep-08 00:58N 38°59' W 075°13'0 0.0
2017-Sep-08 00:28N 38°59' W 075°13'0 0.0
2017-Sep-07 23:55N 38°59' W 075°13'0 0.0
2017-Sep-07 23:28N 38°59' W 075°13'0 0.0
2017-Sep-07 23:01N 38°59' W 075°13'0 0.2
2017-Sep-07 22:31N 38°59' W 075°13'0 0.2
2017-Sep-07 22:01N 38°59' W 075°12'0 0.2
2017-Sep-07 21:30N 38°59' W 075°12'0 0.1
2017-Sep-07 21:00N 38°59' W 075°12'0 0.0
2017-Sep-07 20:30N 38°59' W 075°12'0 0.1
2017-Sep-07 19:57N 38°59' W 075°12'0 0.1
2017-Sep-07 19:30N 38°59' W 075°12'0 0.1
2017-Sep-07 19:00N 38°59' W 075°12'0 0.0
2017-Sep-07 18:30N 38°59' W 075°12'0 0.0
2017-Sep-07 17:57N 38°59' W 075°12'0 0.0
2017-Sep-07 17:27N 38°59' W 075°12'0 0.0
2017-Sep-07 17:00N 38°59' W 075°12'0 0.1
2017-Sep-07 16:30N 38°59' W 075°12'0 0.2
2017-Sep-07 16:00N 38°59' W 075°12'0 0.1
2017-Sep-07 15:27N 38°59' W 075°13'0 0.2
2017-Sep-07 14:57N 38°59' W 075°13'0 0.1
2017-Sep-07 14:30N 38°59' W 075°13'0 0.0
2017-Sep-07 14:00N 38°59' W 075°13'0 0.0
2017-Sep-07 13:30N 38°59' W 075°13'0 0.0
2017-Sep-07 12:57N 38°59' W 075°13'0 0.1
2017-Sep-07 12:30N 38°59' W 075°13'0 0.0
2017-Sep-07 12:00N 38°59' W 075°13'0 0.0
2017-Sep-07 11:30N 38°59' W 075°13'0 0.1
2017-Sep-07 11:00N 38°59' W 075°13'0 0.1
2017-Sep-07 10:30N 38°59' W 075°13'0 0.4
2017-Sep-07 10:00N 38°59' W 075°12'0 0.1
2017-Sep-07 09:30N 38°59' W 075°12'0 0.1
2017-Sep-07 09:00N 38°59' W 075°12'0 0.0
2017-Sep-07 08:30N 38°59' W 075°12'0 0.0
2017-Sep-07 08:00N 38°59' W 075°12'0 0.0
2017-Sep-07 07:30N 38°59' W 075°12'  
Track history (hours):
 
Tides and Currents Weather Stations Pressure Air Temp Water Temp Dewpoint Dewpoint Depression Visibility Wind Speed Wind Dir Waves Ship Positions

Ns Challenger

Last reported at 2017-Sep-17 07:28 UTC. Time now 2017-Sep-21 15:57 UTC.
Position N 37°33' W 074°40'.

Length 244 m; draft 9.6 m.

Type: Tanker. MMSI: 636012381.

Date/timePositionNaut miles runAvg speedWind from/ knotsBaromVisibWave heightAir tempDewpointWater temp
2017-Sep-17 07:28N 37°33' W 074°40'612.3
2017-Sep-17 06:59N 37°39' W 074°41'612.5
2017-Sep-17 06:30N 37°45' W 074°41'812.6
2017-Sep-17 05:53N 37°53' W 074°40'411.6
2017-Sep-17 05:30N 37°57' W 074°40'712.2
2017-Sep-17 04:57N 38°04' W 074°40'613.2
2017-Sep-17 04:30N 38°10' W 074°40'713.5
2017-Sep-17 04:00N 38°17' W 074°40'713.3
2017-Sep-17 03:30N 38°24' W 074°41'713.6
2017-Sep-17 03:00N 38°29' W 074°46'714.0
2017-Sep-17 02:30N 38°35' W 074°51'714.4
2017-Sep-17 02:00N 38°41' W 074°56'714.2
2017-Sep-17 01:31N 38°47' W 075°02'611.2
2017-Sep-17 01:00N 38°52' W 075°05'714.2
2017-Sep-17 00:31N 38°58' W 075°08'714.4
2017-Sep-17 00:01N 39°05' W 075°11'713.3
2017-Sep-16 23:30N 39°10' W 075°16'612.1
2017-Sep-16 23:00N 39°16' W 075°20'611.5
2017-Sep-16 22:31N 39°20' W 075°25'611.5
2017-Sep-16 22:01N 39°24' W 075°30'611.1
2017-Sep-16 21:31N 39°29' W 075°34'611.4
2017-Sep-16 21:01N 39°35' W 075°33'510.1
2017-Sep-16 20:31N 39°40' W 075°32'713.3
2017-Sep-16 20:00N 39°46' W 075°29'4 8.0
2017-Sep-16 19:31N 39°48' W 075°25'0 0.2
2017-Sep-16 19:00N 39°48' W 075°25'0 0.0
2017-Sep-16 18:30N 39°48' W 075°25'0 0.0
2017-Sep-16 18:00N 39°48' W 075°25'0 0.0
2017-Sep-16 17:30N 39°48' W 075°25'0 0.0
2017-Sep-16 17:00N 39°48' W 075°25'0 0.0
2017-Sep-16 16:30N 39°48' W 075°25'0 0.2
2017-Sep-16 16:00N 39°48' W 075°25'0 0.4
2017-Sep-16 15:30N 39°48' W 075°25'0 0.1
2017-Sep-16 15:00N 39°48' W 075°25'0 0.0
2017-Sep-16 14:30N 39°48' W 075°25'0 0.0
2017-Sep-16 14:00N 39°48' W 075°25'0 0.0
2017-Sep-16 13:30N 39°48' W 075°24'0 0.0
2017-Sep-16 13:00N 39°48' W 075°24'0 0.0
2017-Sep-16 12:30N 39°48' W 075°24'0 0.0
2017-Sep-16 12:00N 39°48' W 075°24'0 0.0
2017-Sep-16 11:30N 39°48' W 075°24'0 0.0
2017-Sep-16 11:00N 39°48' W 075°24'0 0.0
2017-Sep-16 10:30N 39°48' W 075°24'0 0.3
2017-Sep-16 10:00N 39°48' W 075°25'0 0.3
2017-Sep-16 09:30N 39°48' W 075°25'0 0.0
2017-Sep-16 09:00N 39°48' W 075°25'0 0.0
2017-Sep-16 08:30N 39°48' W 075°25'0 0.0
2017-Sep-16 08:00N 39°48' W 075°25'0 0.0
2017-Sep-16 07:30N 39°48' W 075°25'0 0.0
2017-Sep-16 07:00N 39°48' W 075°25'0 0.2
2017-Sep-16 06:30N 39°48' W 075°25'2 4.6
2017-Sep-16 06:00N 39°47' W 075°28'5 9.6
2017-Sep-16 05:30N 39°43' W 075°31'5 9.2
2017-Sep-16 05:00N 39°39' W 075°33'4 8.5
2017-Sep-16 04:30N 39°34' W 075°33'1 1.9
2017-Sep-16 04:00N 39°35' W 075°34'1 1.5
2017-Sep-16 03:29N 39°35' W 075°35'0 0.0
2017-Sep-16 02:59N 39°35' W 075°35'0 0.0
2017-Sep-16 02:29N 39°35' W 075°35'0 0.0
2017-Sep-16 01:59N 39°35' W 075°35'0 0.0
2017-Sep-16 01:29N 39°35' W 075°35'0 0.0
2017-Sep-16 00:59N 39°35' W 075°35'0 0.0
2017-Sep-16 00:29N 39°35' W 075°35'0 0.0
2017-Sep-15 23:59N 39°35' W 075°35'0 0.0
2017-Sep-15 23:29N 39°35' W 075°35'0 0.0
2017-Sep-15 22:59N 39°35' W 075°35'0 0.0
2017-Sep-15 22:29N 39°35' W 075°35'0 0.0
2017-Sep-15 21:59N 39°35' W 075°35'0 0.0
2017-Sep-15 21:29N 39°35' W 075°35'0 0.0
2017-Sep-15 20:59N 39°35' W 075°35'0 0.0
2017-Sep-15 20:29N 39°35' W 075°35'0 0.0
2017-Sep-15 19:59N 39°35' W 075°35'0 0.0
2017-Sep-15 19:29N 39°35' W 075°35'0 0.0
2017-Sep-15 18:59N 39°35' W 075°35'0 0.0
2017-Sep-15 18:29N 39°35' W 075°35'0 0.0
2017-Sep-15 17:59N 39°35' W 075°35'0 0.0
2017-Sep-15 17:29N 39°35' W 075°35'0 0.0
2017-Sep-15 16:59N 39°35' W 075°35'0 0.0
2017-Sep-15 16:29N 39°35' W 075°35'0 0.0
2017-Sep-15 15:59N 39°35' W 075°35'0 0.0
2017-Sep-15 15:29N 39°35' W 075°35'0 0.0
2017-Sep-15 14:59N 39°35' W 075°35'0 0.0
2017-Sep-15 14:29N 39°35' W 075°35'0 0.0
2017-Sep-15 13:59N 39°35' W 075°35'0 0.0
2017-Sep-15 13:29N 39°35' W 075°35'0 0.0
2017-Sep-15 12:59N 39°35' W 075°35'0 0.0
2017-Sep-15 12:29N 39°35' W 075°35'0 0.0
2017-Sep-15 11:59N 39°35' W 075°35'0 0.0
2017-Sep-15 11:28N 39°35' W 075°35'0 0.0
2017-Sep-15 10:58N 39°35' W 075°35'0 0.0
2017-Sep-15 10:28N 39°35' W 075°35'0 0.0
2017-Sep-15 09:58N 39°35' W 075°35'0 0.0
2017-Sep-15 09:28N 39°35' W 075°35'0 0.0
2017-Sep-15 08:58N 39°35' W 075°35'0 0.0
2017-Sep-15 08:28N 39°35' W 075°35'0 0.0
2017-Sep-15 07:58N 39°35' W 075°35'0 0.0
2017-Sep-15 07:28N 39°35' W 075°35'0 0.0
2017-Sep-15 06:58N 39°35' W 075°35'0 0.0
2017-Sep-15 06:28N 39°35' W 075°35'0 0.0
2017-Sep-15 05:58N 39°35' W 075°35'0 0.0
2017-Sep-15 05:28N 39°35' W 075°35'0 0.0
2017-Sep-15 04:58N 39°35' W 075°35'0 0.0
2017-Sep-15 04:28N 39°35' W 075°35'0 0.0
2017-Sep-15 03:58N 39°35' W 075°35'0 0.0
2017-Sep-15 03:28N 39°35' W 075°35'0 0.0
2017-Sep-15 02:58N 39°35' W 075°35'0 0.0
2017-Sep-15 02:28N 39°35' W 075°35'0 0.0
2017-Sep-15 01:58N 39°35' W 075°35'0 0.0
2017-Sep-15 01:28N 39°35' W 075°35'0 0.0
2017-Sep-15 00:58N 39°35' W 075°35'0 0.0
2017-Sep-15 00:28N 39°35' W 075°35'0 0.0
2017-Sep-14 23:58N 39°35' W 075°35'0 0.0
2017-Sep-14 23:28N 39°35' W 075°35'0 0.0
2017-Sep-14 22:58N 39°35' W 075°35'0 0.0
2017-Sep-14 22:28N 39°35' W 075°35'0 0.0
2017-Sep-14 21:58N 39°35' W 075°35'0 0.0
2017-Sep-14 21:28N 39°35' W 075°35'0 0.0
2017-Sep-14 20:58N 39°35' W 075°35'0 0.0
2017-Sep-14 20:28N 39°35' W 075°35'0 0.0
2017-Sep-14 19:58N 39°35' W 075°35'0 0.0
2017-Sep-14 19:28N 39°35' W 075°35'0 0.0
2017-Sep-14 18:58N 39°35' W 075°35'0 0.0
2017-Sep-14 18:28N 39°35' W 075°35'0 0.0
2017-Sep-14 17:58N 39°35' W 075°35'0 0.0
2017-Sep-14 17:25N 39°35' W 075°35'0 0.0
2017-Sep-14 16:58N 39°35' W 075°35'0 0.0
2017-Sep-14 16:28N 39°35' W 075°35'0 0.0
2017-Sep-14 15:58N 39°35' W 075°35'0 0.0
2017-Sep-14 15:28N 39°35' W 075°35'0 0.0
2017-Sep-14 14:58N 39°35' W 075°35'0 0.0
2017-Sep-14 14:28N 39°35' W 075°35'0 0.0
2017-Sep-14 13:58N 39°35' W 075°35'0 0.0
2017-Sep-14 13:28N 39°35' W 075°35'0 0.0
2017-Sep-14 12:58N 39°35' W 075°35'0 0.0
2017-Sep-14 12:28N 39°35' W 075°35'0 0.0
2017-Sep-14 11:58N 39°35' W 075°35'0 0.0
2017-Sep-14 11:28N 39°35' W 075°35'0 0.0
2017-Sep-14 10:58N 39°35' W 075°35'0 0.0
2017-Sep-14 10:28N 39°35' W 075°35'0 0.0
2017-Sep-14 09:58N 39°35' W 075°35'0 0.0
2017-Sep-14 09:28N 39°35' W 075°35'0 0.0
2017-Sep-14 08:58N 39°35' W 075°35'0 0.0
2017-Sep-14 08:28N 39°35' W 075°35'0 0.0
2017-Sep-14 07:58N 39°35' W 075°35'0 0.0
2017-Sep-14 07:28N 39°35' W 075°35'0 0.0
2017-Sep-14 06:58N 39°35' W 075°35'0 0.0
2017-Sep-14 06:28N 39°35' W 075°35'0 0.0
2017-Sep-14 05:58N 39°35' W 075°35'0 0.0
2017-Sep-14 05:28N 39°35' W 075°35'0 0.0
2017-Sep-14 04:58N 39°35' W 075°35'0 0.0
2017-Sep-14 04:28N 39°35' W 075°35'0 0.0
2017-Sep-14 03:58N 39°35' W 075°35'0 0.0
2017-Sep-14 03:25N 39°35' W 075°35'0 0.0
2017-Sep-14 03:01N 39°35' W 075°35'0 0.0
2017-Sep-14 02:30N 39°35' W 075°35'0 0.0
2017-Sep-14 02:00N 39°35' W 075°35'0 0.0
2017-Sep-14 01:30N 39°35' W 075°35'0 0.0
2017-Sep-14 01:00N 39°35' W 075°35'0 0.0
2017-Sep-14 00:30N 39°35' W 075°35'0 0.0
2017-Sep-14 00:01N 39°35' W 075°35'0 0.0
2017-Sep-13 23:30N 39°35' W 075°35'0 0.0
2017-Sep-13 23:01N 39°35' W 075°35'0 0.0
2017-Sep-13 22:31N 39°35' W 075°35'0 0.0
2017-Sep-13 22:01N 39°35' W 075°35'0 0.0
2017-Sep-13 21:31N 39°35' W 075°35'0 0.0
2017-Sep-13 21:00N 39°35' W 075°35'0 0.0
2017-Sep-13 20:30N 39°35' W 075°35'0 0.0
2017-Sep-13 20:00N 39°35' W 075°35'0 0.0
2017-Sep-13 19:30N 39°35' W 075°35'0 0.0
2017-Sep-13 19:00N 39°35' W 075°35'0 0.0
2017-Sep-13 18:30N 39°35' W 075°35'0 0.0
2017-Sep-13 18:00N 39°35' W 075°35'0 0.0
2017-Sep-13 17:30N 39°35' W 075°35'0 0.0
2017-Sep-13 17:00N 39°35' W 075°35'0 0.0
2017-Sep-13 16:30N 39°35' W 075°35'0 0.0
2017-Sep-13 15:57N 39°35' W 075°35'0 0.0
2017-Sep-13 15:30N 39°35' W 075°35'0 0.0
2017-Sep-13 15:00N 39°35' W 075°35'0 0.0
2017-Sep-13 14:30N 39°35' W 075°35'0 0.0
2017-Sep-13 14:00N 39°35' W 075°35'0 0.0
2017-Sep-13 13:30N 39°35' W 075°35'0 0.0
2017-Sep-13 13:00N 39°35' W 075°35'0 0.0
2017-Sep-13 12:30N 39°35' W 075°35'0 0.0
2017-Sep-13 12:00N 39°35' W 075°35'0 0.0
2017-Sep-13 11:31N 39°35' W 075°35'1 2.6
2017-Sep-13 11:00N 39°34' W 075°34'2 4.6
2017-Sep-13 10:30N 39°32' W 075°33'4 8.1
2017-Sep-13 10:00N 39°28' W 075°34'510.1
2017-Sep-13 09:31N 39°24' W 075°30'510.9
2017-Sep-13 09:00N 39°20' W 075°25'510.6
2017-Sep-13 08:30N 39°16' W 075°21'510.6
2017-Sep-13 08:00N 39°12' W 075°17'612.3
2017-Sep-13 07:30N 39°07' W 075°12'612.8
2017-Sep-13 07:00N 39°01' W 075°09'613.0
2017-Sep-13 06:31N 38°55' W 075°06'3 6.1
2017-Sep-13 06:00N 38°55' W 075°09'5 9.7
2017-Sep-13 05:31N 38°59' W 075°13'0 0.7
2017-Sep-13 04:58N 38°59' W 075°13'0 0.0
2017-Sep-13 04:28N 38°59' W 075°13'0 0.0
2017-Sep-13 03:58N 38°59' W 075°13'0 0.0
2017-Sep-13 03:28N 38°59' W 075°13'0 0.0
2017-Sep-13 02:55N 38°59' W 075°13'0 0.0
2017-Sep-13 02:28N 38°59' W 075°13'0 0.4
2017-Sep-13 01:58N 38°59' W 075°12'0 0.1
2017-Sep-13 01:28N 38°59' W 075°13'0 0.0
2017-Sep-13 00:58N 38°59' W 075°13'0 0.1
2017-Sep-13 00:28N 38°59' W 075°12'0 0.0
2017-Sep-12 23:58N 38°59' W 075°12'0 0.1
2017-Sep-12 23:28N 38°59' W 075°13'0 0.0
2017-Sep-12 22:58N 38°59' W 075°12'0 0.0
2017-Sep-12 22:28N 38°59' W 075°12'0 0.0
2017-Sep-12 21:55N 38°59' W 075°12'0 0.0
2017-Sep-12 21:28N 38°59' W 075°12'0 0.2
2017-Sep-12 20:58N 38°59' W 075°12'0 0.2
2017-Sep-12 20:28N 38°59' W 075°13'0 0.1
2017-Sep-12 19:58N 38°59' W 075°13'0 0.0
2017-Sep-12 19:28N 38°59' W 075°13'0 0.0
2017-Sep-12 18:55N 38°59' W 075°13'0 0.0
2017-Sep-12 18:25N 38°59' W 075°13'0 0.0
2017-Sep-12 17:52N 38°59' W 075°13'0 0.0
2017-Sep-12 17:28N 38°59' W 075°13'0 0.0
2017-Sep-12 17:01N 38°59' W 075°13'0 0.0
2017-Sep-12 16:31N 38°59' W 075°13'0 0.1
2017-Sep-12 16:01N 38°59' W 075°13'0 0.0
2017-Sep-12 15:30N 38°59' W 075°13'0 0.1
2017-Sep-12 14:57N 38°59' W 075°13'0 0.0
2017-Sep-12 14:21N 38°59' W 075°13'0 0.0
2017-Sep-12 14:00N 38°59' W 075°13'0 0.1
2017-Sep-12 13:27N 38°59' W 075°13'0 0.4
2017-Sep-12 13:00N 38°59' W 075°13'0 0.0
2017-Sep-12 09:15N 38°59' W 075°12'0 0.1
2017-Sep-12 09:00N 38°59' W 075°12'0 0.0
2017-Sep-12 08:30N 38°59' W 075°12'0 0.1
2017-Sep-12 08:00N 38°59' W 075°12'0 0.2
2017-Sep-12 07:30N 38°59' W 075°12'0 0.2
2017-Sep-12 07:00N 38°59' W 075°13'0 0.1
2017-Sep-12 06:30N 38°59' W 075°13'0 0.0
2017-Sep-12 05:57N 38°59' W 075°13'0 0.0
2017-Sep-12 05:30N 38°59' W 075°13'0 0.0
2017-Sep-12 05:00N 38°59' W 075°13'0 0.0
2017-Sep-12 04:30N 38°59' W 075°13'0 0.0
2017-Sep-12 04:00N 38°59' W 075°13'0 0.0
2017-Sep-12 03:30N 38°59' W 075°13'0 0.1
2017-Sep-12 03:00N 38°59' W 075°13'0 0.3
2017-Sep-12 02:30N 38°59' W 075°13'0 0.1
2017-Sep-12 02:00N 38°59' W 075°13'0 0.1
2017-Sep-12 01:30N 38°59' W 075°13'0 0.1
2017-Sep-12 01:00N 38°59' W 075°12'0 0.0
2017-Sep-12 00:30N 38°59' W 075°12'0 0.0
2017-Sep-12 00:00N 38°59' W 075°12'0 0.0
2017-Sep-11 23:30N 38°59' W 075°12'0 0.0
2017-Sep-11 23:00N 38°59' W 075°12'0 0.0
2017-Sep-11 22:30N 38°59' W 075°12'0 0.0
2017-Sep-11 22:00N 38°59' W 075°12'0 0.0
2017-Sep-11 21:30N 38°59' W 075°12'0 0.0
2017-Sep-11 21:00N 38°59' W 075°12'0 0.0
2017-Sep-11 20:30N 38°59' W 075°12'0 0.1
2017-Sep-11 20:00N 38°59' W 075°12'0 0.3
2017-Sep-11 19:30N 38°59' W 075°12'0 0.2
2017-Sep-11 19:00N 38°59' W 075°13'0 0.1
2017-Sep-11 18:30N 38°59' W 075°13'0 0.0
2017-Sep-11 18:00N 38°59' W 075°13'0 0.0
2017-Sep-11 17:30N 38°59' W 075°13'0 0.0
2017-Sep-11 16:54N 38°59' W 075°13'0 0.0
2017-Sep-11 14:24N 38°59' W 075°13'0 0.0
2017-Sep-11 14:00N 38°59' W 075°13'0 0.1
2017-Sep-11 13:24N 38°59' W 075°13'0 0.1
2017-Sep-11 13:00N 38°59' W 075°13'0 0.1
2017-Sep-11 12:24N 38°59' W 075°13'0 0.2
2017-Sep-11 12:00N 38°59' W 075°13'0 0.1
2017-Sep-11 11:30N 38°59' W 075°13'0 0.1
2017-Sep-11 11:00N 38°59' W 075°13'0 0.0
2017-Sep-11 10:30N 38°59' W 075°12'0 0.0
2017-Sep-11 09:57N 38°59' W 075°12'0 0.0
2017-Sep-11 09:30N 38°59' W 075°12'0 0.0
2017-Sep-11 09:00N 38°59' W 075°12'0 0.0
2017-Sep-11 08:30N 38°59' W 075°13'0 0.0
2017-Sep-11 08:00N 38°59' W 075°12'0 0.2
2017-Sep-11 07:30N 38°59' W 075°13'0 0.4
2017-Sep-11 06:57N 38°59' W 075°13'0 0.1
2017-Sep-11 06:30N 38°59' W 075°13'0 0.0
2017-Sep-11 06:00N 38°59' W 075°13'0 0.0
2017-Sep-11 05:09N 38°59' W 075°13'0 0.0
2017-Sep-11 04:57N 38°59' W 075°13'0 0.0
2017-Sep-11 04:30N 38°59' W 075°13'0 0.0
2017-Sep-11 03:45N 38°59' W 075°13'0 0.1
2017-Sep-11 03:30N 38°59' W 075°13'0 0.0
2017-Sep-11 03:00N 38°59' W 075°13'0 0.0
2017-Sep-11 02:06N 38°59' W 075°13'0 0.0
2017-Sep-11 01:57N 38°59' W 075°13'0 0.0
2017-Sep-11 01:20N 38°59' W 075°13'0 0.1
2017-Sep-11 00:20N 38°59' W 075°13'0 0.3
2017-Sep-10 23:59N 38°59' W 075°13'0 0.2
2017-Sep-10 23:29N 38°59' W 075°13'0 0.1
2017-Sep-10 22:59N 38°59' W 075°13'0 0.0
2017-Sep-10 22:29N 38°59' W 075°12'0 0.0
2017-Sep-10 21:59N 38°59' W 075°12'0 0.0
2017-Sep-10 21:29N 38°59' W 075°12'0 0.0
2017-Sep-10 20:56N 38°59' W 075°12'0 0.0
2017-Sep-10 20:29N 38°59' W 075°12'0 0.0
2017-Sep-10 19:59N 38°59' W 075°12'0 0.0
2017-Sep-10 19:29N 38°59' W 075°12'0 0.1
2017-Sep-10 18:59N 38°59' W 075°12'0 0.3
2017-Sep-10 18:29N 38°59' W 075°12'0 0.1
2017-Sep-10 13:50N 38°59' W 075°13'0 0.1
2017-Sep-10 13:05N 38°59' W 075°13'0 0.1
2017-Sep-10 12:35N 38°59' W 075°13'0 0.2
2017-Sep-10 12:29N 38°59' W 075°13'0 0.1
2017-Sep-10 11:59N 38°59' W 075°13'0 0.0
2017-Sep-10 11:29N 38°59' W 075°13'0 0.0
2017-Sep-10 10:56N 38°59' W 075°13'0 0.0
2017-Sep-10 10:29N 38°59' W 075°13'0 0.0
2017-Sep-10 09:59N 38°59' W 075°13'0 0.0
2017-Sep-10 09:23N 38°59' W 075°12'0 0.0
2017-Sep-10 08:59N 38°59' W 075°12'0 0.0
2017-Sep-10 08:29N 38°59' W 075°13'0 0.0
2017-Sep-10 07:59N 38°59' W 075°13'0 0.0
2017-Sep-10 07:29N 38°59' W 075°13'0 0.0
2017-Sep-10 06:56N 38°59' W 075°13'0 0.0
2017-Sep-10 06:29N 38°59' W 075°12'0 0.0
2017-Sep-10 05:53N 38°59' W 075°13'0 0.0
2017-Sep-10 05:29N 38°59' W 075°13'0 0.3
2017-Sep-10 04:56N 38°59' W 075°13'0 0.2
2017-Sep-10 04:29N 38°59' W 075°13'0 0.1
2017-Sep-10 03:59N 38°59' W 075°13'0 0.0
2017-Sep-10 02:53N 38°59' W 075°13'0 0.0
2017-Sep-10 02:29N 38°59' W 075°13'0 0.1
2017-Sep-10 01:59N 38°59' W 075°13'0 0.2
2017-Sep-10 01:29N 38°59' W 075°13'0 0.1
2017-Sep-10 00:59N 38°59' W 075°13'0 0.2
2017-Sep-10 00:29N 38°59' W 075°13'0 0.1
2017-Sep-09 23:56N 38°59' W 075°12'0 0.1
2017-Sep-09 23:26N 38°59' W 075°13'0 0.1
2017-Sep-09 22:59N 38°59' W 075°12'0 0.0
2017-Sep-09 22:29N 38°59' W 075°12'0 0.0
2017-Sep-09 21:59N 38°59' W 075°12'0 0.0
2017-Sep-09 21:29N 38°59' W 075°12'0 0.0
2017-Sep-09 20:59N 38°59' W 075°12'0 0.0
2017-Sep-09 20:23N 38°59' W 075°12'0 0.0
2017-Sep-09 19:59N 38°59' W 075°12'0 0.0
2017-Sep-09 19:29N 38°59' W 075°12'0 0.1
2017-Sep-09 18:59N 38°59' W 075°12'0 0.0
2017-Sep-09 18:29N 38°59' W 075°12'0 0.0
2017-Sep-09 17:50N 38°59' W 075°12'0 0.4
2017-Sep-09 17:29N 38°59' W 075°13'0 0.3
2017-Sep-09 16:59N 38°59' W 075°13'0 0.0
2017-Sep-09 12:59N 38°59' W 075°13'0 0.1
2017-Sep-09 12:29N 38°59' W 075°13'0 0.3
2017-Sep-09 11:56N 38°59' W 075°13'0 0.1
2017-Sep-09 11:29N 38°59' W 075°13'0 0.0
2017-Sep-09 10:58N 38°59' W 075°13'0 0.0
2017-Sep-09 10:28N 38°59' W 075°13'0 0.1
2017-Sep-09 09:58N 38°59' W 075°13'0 0.1
2017-Sep-09 09:28N 38°59' W 075°13'0 0.0
2017-Sep-09 08:58N 38°59' W 075°13'0 0.0
2017-Sep-09 08:28N 38°59' W 075°13'0 0.0
2017-Sep-09 07:55N 38°59' W 075°13'0 0.0
2017-Sep-09 07:28N 38°59' W 075°13'0 0.0
2017-Sep-09 06:58N 38°59' W 075°13'0 0.0
2017-Sep-09 06:28N 38°59' W 075°13'0 0.0
2017-Sep-09 05:46N 38°59' W 075°13'0 0.0
2017-Sep-09 05:28N 38°59' W 075°13'0 0.1
2017-Sep-09 04:58N 38°59' W 075°12'0 0.4
2017-Sep-09 04:28N 38°59' W 075°13'0 0.1
2017-Sep-09 03:58N 38°59' W 075°13'0 0.0
2017-Sep-09 03:28N 38°59' W 075°13'0 0.0
2017-Sep-09 02:58N 38°59' W 075°13'0 0.0
2017-Sep-09 02:25N 38°59' W 075°13'0 0.0
2017-Sep-09 01:58N 38°59' W 075°13'0 0.0
2017-Sep-09 01:28N 38°59' W 075°13'0 0.0
2017-Sep-09 00:58N 38°59' W 075°13'0 0.0
2017-Sep-09 00:28N 38°59' W 075°13'0 0.1
2017-Sep-08 23:55N 38°59' W 075°13'0 0.0
2017-Sep-08 23:28N 38°59' W 075°13'0 0.4
2017-Sep-08 22:58N 38°59' W 075°12'0 0.2
2017-Sep-08 22:28N 38°59' W 075°13'0 0.0
2017-Sep-08 21:55N 38°59' W 075°13'0 0.0
2017-Sep-08 21:28N 38°59' W 075°13'0 0.0
2017-Sep-08 20:58N 38°59' W 075°13'0 0.0
2017-Sep-08 20:28N 38°59' W 075°13'0 0.0
2017-Sep-08 19:55N 38°59' W 075°13'0 0.0
2017-Sep-08 19:28N 38°59' W 075°13'0 0.0
2017-Sep-08 18:55N 38°59' W 075°13'0 0.0
2017-Sep-08 18:28N 38°59' W 075°13'0 0.0
2017-Sep-08 17:58N 38°59' W 075°13'0 0.0
2017-Sep-08 17:28N 38°59' W 075°12'0 0.0
2017-Sep-08 16:58N 38°59' W 075°12'0 0.3
2017-Sep-08 16:28N 38°59' W 075°13'0 0.1
2017-Sep-08 15:58N 38°59' W 075°13'0 0.1
2017-Sep-08 15:28N 38°59' W 075°13'0 0.0
2017-Sep-08 14:58N 38°59' W 075°13'0 0.0
2017-Sep-08 14:25N 38°59' W 075°13'0 0.0
2017-Sep-08 13:43N 38°59' W 075°13'0 0.1
2017-Sep-08 13:28N 38°59' W 075°13'0 0.0
2017-Sep-08 12:58N 38°59' W 075°13'0 0.0
2017-Sep-08 12:28N 38°59' W 075°13'0 0.0
2017-Sep-08 11:58N 38°59' W 075°13'0 0.0
2017-Sep-08 11:25N 38°59' W 075°13'0 0.1
2017-Sep-08 10:58N 38°59' W 075°13'0 0.2
2017-Sep-08 10:28N 38°59' W 075°12'0 0.3
2017-Sep-08 09:52N 38°59' W 075°12'0 0.0
2017-Sep-08 09:28N 38°59' W 075°13'0 0.0
2017-Sep-08 08:58N 38°59' W 075°12'0 0.0
2017-Sep-08 08:28N 38°59' W 075°12'0 0.0
2017-Sep-08 07:58N 38°59' W 075°12'0 0.0
2017-Sep-08 07:28N 38°59' W 075°12'0 0.0
2017-Sep-08 06:58N 38°59' W 075°12'0 0.0
2017-Sep-08 06:28N 38°59' W 075°12'0 0.1
2017-Sep-08 05:58N 38°59' W 075°12'0 0.1
2017-Sep-08 05:28N 38°59' W 075°12'0 0.0
2017-Sep-08 04:58N 38°59' W 075°12'0 0.1
2017-Sep-08 04:28N 38°59' W 075°12'0 0.2
2017-Sep-08 03:58N 38°59' W 075°13'0 0.1
2017-Sep-08 03:28N 38°59' W 075°13'0 0.0
2017-Sep-08 02:58N 38°59' W 075°13'0 0.0
2017-Sep-08 02:25N 38°59' W 075°13'0 0.0
2017-Sep-08 01:58N 38°59' W 075°13'0 0.0
2017-Sep-08 01:28N 38°59' W 075°13'0 0.0
2017-Sep-08 00:58N 38°59' W 075°13'0 0.0
2017-Sep-08 00:28N 38°59' W 075°13'0 0.0
2017-Sep-07 23:55N 38°59' W 075°13'0 0.0
2017-Sep-07 23:28N 38°59' W 075°13'0 0.0
2017-Sep-07 23:01N 38°59' W 075°13'0 0.2
2017-Sep-07 22:31N 38°59' W 075°13'0 0.2
2017-Sep-07 22:01N 38°59' W 075°12'0 0.2
2017-Sep-07 21:30N 38°59' W 075°12'0 0.1
2017-Sep-07 21:00N 38°59' W 075°12'0 0.0
2017-Sep-07 20:30N 38°59' W 075°12'0 0.1
2017-Sep-07 19:57N 38°59' W 075°12'0 0.1
2017-Sep-07 19:30N 38°59' W 075°12'0 0.1
2017-Sep-07 19:00N 38°59' W 075°12'0 0.0
2017-Sep-07 18:30N 38°59' W 075°12'0 0.0
2017-Sep-07 17:57N 38°59' W 075°12'0 0.0
2017-Sep-07 17:27N 38°59' W 075°12'0 0.0
2017-Sep-07 17:00N 38°59' W 075°12'0 0.1
2017-Sep-07 16:30N 38°59' W 075°12'0 0.2
2017-Sep-07 16:00N 38°59' W 075°12'0 0.1
2017-Sep-07 15:27N 38°59' W 075°13'0 0.2
2017-Sep-07 14:57N 38°59' W 075°13'0 0.1
2017-Sep-07 14:30N 38°59' W 075°13'0 0.0
2017-Sep-07 14:00N 38°59' W 075°13'0 0.0
2017-Sep-07 13:30N 38°59' W 075°13'0 0.0
2017-Sep-07 12:57N 38°59' W 075°13'0 0.1
2017-Sep-07 12:30N 38°59' W 075°13'0 0.0
2017-Sep-07 12:00N 38°59' W 075°13'0 0.0
2017-Sep-07 11:30N 38°59' W 075°13'0 0.1
2017-Sep-07 11:00N 38°59' W 075°13'0 0.1
2017-Sep-07 10:30N 38°59' W 075°13'0 0.4
2017-Sep-07 10:00N 38°59' W 075°12'0 0.1
2017-Sep-07 09:30N 38°59' W 075°12'0 0.1
2017-Sep-07 09:00N 38°59' W 075°12'0 0.0
2017-Sep-07 08:30N 38°59' W 075°12'0 0.0
2017-Sep-07 08:00N 38°59' W 075°12'0 0.0
2017-Sep-07 07:30N 38°59' W 075°12'  

Dump ship's entire track history